createdAt,value
2022-11-09T00:00:14.448Z,100.00
2022-11-09T00:02:43.984Z,100.00
2022-11-09T00:05:10.554Z,100.00
2022-11-09T00:07:36.952Z,100.00
2022-11-09T00:10:03.524Z,100.00
2022-11-09T00:12:29.937Z,100.00
2022-11-09T00:14:56.301Z,100.00
2022-11-09T00:17:22.733Z,100.00
2022-11-09T00:19:49.067Z,100.00
2022-11-09T00:22:15.480Z,100.00
2022-11-09T00:24:41.837Z,100.00
2022-11-09T00:27:08.209Z,100.00
2022-11-09T00:29:34.568Z,100.00
2022-11-09T00:32:00.919Z,100.00
2022-11-09T00:34:27.291Z,100.00
2022-11-09T00:36:53.626Z,100.00
2022-11-09T00:39:20.019Z,100.00
2022-11-09T00:41:46.399Z,100.00
2022-11-09T00:44:12.842Z,100.00
2022-11-09T00:46:39.347Z,100.00
2022-11-09T00:49:05.920Z,100.00
2022-11-09T00:51:32.288Z,100.00
2022-11-09T00:53:58.704Z,100.00
2022-11-09T00:56:25.144Z,100.00
2022-11-09T00:58:55.978Z,100.00
2022-11-09T01:01:22.595Z,100.00
2022-11-09T01:03:49.023Z,100.00
2022-11-09T01:06:17.225Z,100.00
2022-11-09T01:08:43.929Z,100.00
2022-11-09T01:11:10.325Z,100.00
2022-11-09T01:13:37.052Z,100.00
2022-11-09T01:16:14.367Z,100.00
2022-11-09T01:18:40.790Z,100.00
2022-11-09T01:21:07.829Z,100.00
2022-11-09T01:23:34.381Z,100.00
2022-11-09T01:26:01.805Z,100.00
2022-11-09T01:28:28.178Z,100.00
2022-11-09T01:30:54.675Z,100.00
2022-11-09T01:33:21.447Z,100.00
2022-11-09T01:35:48.005Z,100.00
2022-11-09T01:38:14.471Z,100.00
2022-11-09T01:40:40.867Z,100.00
2022-11-09T01:43:17.803Z,100.00
2022-11-09T01:46:21.167Z,100.00
2022-11-09T01:48:53.661Z,100.00
2022-11-09T01:51:38.380Z,100.00
2022-11-09T01:54:10.544Z,100.00
2022-11-09T01:56:36.893Z,100.00
2022-11-09T01:59:05.727Z,100.00
2022-11-09T02:01:32.208Z,100.00
2022-11-09T02:04:10.791Z,100.00
2022-11-09T02:06:37.193Z,100.00
2022-11-09T02:09:12.475Z,100.00
2022-11-09T02:11:38.945Z,100.00
2022-11-09T02:14:05.395Z,100.00
2022-11-09T02:16:31.777Z,100.00
2022-11-09T02:18:59.104Z,100.00
2022-11-09T02:21:26.598Z,100.00
2022-11-09T02:23:53.009Z,100.00
2022-11-09T02:26:36.907Z,100.00
2022-11-09T02:29:05.185Z,100.00
2022-11-09T02:31:33.803Z,100.00
2022-11-09T02:34:06.577Z,100.00
2022-11-09T02:36:33.031Z,100.00
2022-11-09T02:38:59.377Z,100.00
2022-11-09T02:41:25.880Z,100.00
2022-11-09T02:43:52.420Z,100.00
2022-11-09T02:46:26.476Z,100.00
2022-11-09T02:48:52.822Z,100.00
2022-11-09T02:51:19.189Z,100.00
2022-11-09T02:53:45.551Z,100.00
2022-11-09T02:56:11.919Z,100.00
2022-11-09T02:58:38.268Z,100.00
2022-11-09T03:01:04.678Z,100.00
2022-11-09T03:03:31.083Z,100.00
2022-11-09T03:05:57.417Z,100.00
2022-11-09T03:08:23.782Z,100.00
2022-11-09T03:10:50.255Z,100.00
2022-11-09T03:13:16.786Z,100.00
2022-11-09T03:15:43.315Z,100.00
2022-11-09T03:18:09.690Z,100.00
2022-11-09T03:20:36.082Z,100.00
2022-11-09T03:23:02.541Z,100.00
2022-11-09T03:25:28.957Z,100.00
2022-11-09T03:27:59.253Z,100.00
2022-11-09T03:30:25.877Z,100.00
2022-11-09T03:32:57.805Z,100.00
2022-11-09T03:35:24.159Z,100.00
2022-11-09T03:37:50.543Z,100.00
2022-11-09T03:40:17.368Z,100.00
2022-11-09T03:42:45.376Z,100.00
2022-11-09T03:45:15.269Z,100.00
2022-11-09T03:47:45.402Z,100.00
2022-11-09T03:50:12.132Z,100.00
2022-11-09T03:52:38.646Z,100.00
2022-11-09T03:55:05.643Z,100.00
2022-11-09T03:57:32.158Z,100.00
2022-11-09T03:59:58.542Z,100.00
2022-11-09T04:02:24.951Z,100.00
2022-11-09T04:04:51.296Z,100.00
2022-11-09T04:07:17.798Z,100.00
2022-11-09T04:09:44.219Z,100.00
2022-11-09T04:12:10.617Z,100.00
2022-11-09T04:14:36.948Z,100.00
2022-11-09T04:17:03.320Z,100.00
2022-11-09T04:19:29.670Z,100.00
2022-11-09T04:21:56.038Z,100.00
2022-11-09T04:24:22.408Z,100.00
2022-11-09T04:26:48.828Z,100.00
2022-11-09T04:29:15.193Z,100.00
2022-11-09T04:31:41.561Z,100.00
2022-11-09T04:34:08.120Z,100.00
2022-11-09T04:36:34.543Z,100.00
2022-11-09T04:39:00.926Z,100.00
2022-11-09T04:41:27.746Z,100.00
2022-11-09T04:43:54.115Z,100.00
2022-11-09T04:46:20.448Z,100.00
2022-11-09T04:48:47.094Z,100.00
2022-11-09T04:51:13.445Z,100.00
2022-11-09T04:53:40.031Z,100.00
2022-11-09T04:56:06.885Z,100.00
2022-11-09T04:58:33.436Z,100.00
2022-11-09T05:01:12.843Z,100.00
2022-11-09T05:03:39.380Z,100.00
2022-11-09T05:06:25.855Z,100.00
2022-11-09T05:08:54.310Z,100.00
2022-11-09T05:11:20.942Z,100.00
2022-11-09T05:13:47.589Z,100.00
2022-11-09T05:16:14.122Z,100.00
2022-11-09T05:18:40.535Z,100.00
2022-11-09T05:21:06.902Z,100.00
2022-11-09T05:23:51.841Z,100.00
2022-11-09T05:26:18.208Z,100.00
2022-11-09T05:28:44.938Z,100.00
2022-11-09T05:31:11.319Z,100.00
2022-11-09T05:33:37.669Z,100.00
2022-11-09T05:36:04.198Z,100.00
2022-11-09T05:38:30.609Z,100.00
2022-11-09T05:40:57.070Z,100.00
2022-11-09T05:43:26.487Z,100.00
2022-11-09T05:45:52.902Z,100.00
2022-11-09T05:48:19.273Z,100.00
2022-11-09T05:50:45.650Z,100.00
2022-11-09T05:53:12.191Z,100.00
2022-11-09T05:55:38.765Z,100.00
2022-11-09T05:58:05.321Z,100.00
2022-11-09T06:00:31.809Z,100.00
2022-11-09T06:03:08.028Z,100.00
2022-11-09T06:05:35.283Z,100.00
2022-11-09T06:08:05.794Z,100.00
2022-11-09T06:10:32.336Z,100.00
2022-11-09T06:12:58.708Z,100.00
2022-11-09T06:15:25.067Z,100.00
2022-11-09T06:17:55.359Z,100.00
2022-11-09T06:20:21.876Z,100.00
2022-11-09T06:23:02.746Z,100.00
2022-11-09T06:25:31.544Z,100.00
2022-11-09T06:27:58.319Z,100.00
2022-11-09T06:30:24.779Z,100.00
2022-11-09T06:32:51.159Z,100.00
2022-11-09T06:35:17.586Z,100.00
2022-11-09T06:37:44.330Z,100.00
2022-11-09T06:40:12.548Z,100.00
2022-11-09T06:42:38.945Z,100.00
2022-11-09T06:45:05.726Z,100.00
2022-11-09T06:47:32.076Z,100.00
2022-11-09T06:49:58.458Z,100.00
2022-11-09T06:52:25.962Z,100.00
2022-11-09T06:54:52.317Z,100.00
2022-11-09T06:57:18.697Z,100.00
2022-11-09T06:59:45.065Z,100.00
2022-11-09T07:02:14.852Z,100.00
2022-11-09T07:04:41.233Z,100.00
2022-11-09T07:07:07.746Z,100.00
2022-11-09T07:09:34.158Z,100.00
2022-11-09T07:12:00.776Z,100.00
2022-11-09T07:14:27.162Z,100.00
2022-11-09T07:16:53.742Z,100.00
2022-11-09T07:19:20.198Z,100.00
2022-11-09T07:21:46.563Z,100.00
2022-11-09T07:24:12.906Z,100.00
2022-11-09T07:26:39.258Z,100.00
2022-11-09T07:29:05.621Z,100.00
2022-11-09T07:31:32.002Z,100.00
2022-11-09T07:34:01.196Z,100.00
2022-11-09T07:36:27.562Z,100.00
2022-11-09T07:38:53.944Z,100.00
2022-11-09T07:41:20.369Z,100.00
2022-11-09T07:43:46.762Z,100.00
2022-11-09T07:46:13.166Z,100.00
2022-11-09T07:48:39.527Z,100.00
2022-11-09T07:51:06.050Z,100.00
2022-11-09T07:53:32.525Z,100.00
2022-11-09T07:56:02.626Z,100.00
2022-11-09T07:58:29.086Z,100.00
2022-11-09T08:00:55.567Z,100.00
2022-11-09T08:03:22.572Z,100.00
2022-11-09T08:05:49.406Z,100.00
2022-11-09T08:08:16.487Z,100.00
2022-11-09T08:10:43.656Z,100.00
2022-11-09T08:13:11.884Z,100.00
2022-11-09T08:15:38.353Z,100.00
2022-11-09T08:18:06.439Z,100.00
2022-11-09T08:20:33.315Z,100.00
2022-11-09T08:23:03.992Z,100.00
2022-11-09T08:25:33.205Z,100.00
2022-11-09T08:27:59.564Z,100.00
2022-11-09T08:30:26.035Z,100.00
2022-11-09T08:32:52.585Z,100.00
2022-11-09T08:35:20.637Z,100.00
2022-11-09T08:37:48.455Z,100.00
2022-11-09T08:40:16.199Z,100.00
2022-11-09T08:42:42.666Z,100.00
2022-11-09T08:45:09.688Z,100.00
2022-11-09T08:47:36.145Z,100.00
2022-11-09T08:50:04.465Z,100.00
2022-11-09T08:52:37.113Z,100.00
2022-11-09T08:55:03.909Z,100.00
2022-11-09T08:57:30.523Z,100.00
2022-11-09T08:59:56.922Z,100.00
2022-11-09T09:02:23.268Z,100.00
2022-11-09T09:04:49.653Z,100.00
2022-11-09T09:07:16.093Z,100.00
2022-11-09T09:09:42.505Z,100.00
2022-11-09T09:12:09.339Z,100.00
2022-11-09T09:14:35.832Z,100.00
2022-11-09T09:17:07.680Z,100.00
2022-11-09T09:19:34.790Z,100.00
2022-11-09T09:22:01.467Z,100.00
2022-11-09T09:24:27.935Z,100.00
2022-11-09T09:26:54.309Z,100.00
2022-11-09T09:29:20.690Z,100.00
2022-11-09T09:31:47.044Z,100.00
2022-11-09T09:34:16.241Z,100.00
2022-11-09T09:36:47.588Z,100.00
2022-11-09T09:39:14.595Z,100.00
2022-11-09T09:41:55.007Z,100.00
2022-11-09T09:44:42.831Z,100.00
2022-11-09T09:47:17.300Z,100.00
2022-11-09T09:49:55.217Z,100.00
2022-11-09T09:53:10.620Z,100.00
2022-11-09T09:55:39.050Z,100.00
2022-11-09T09:58:13.580Z,100.00
2022-11-09T10:00:39.966Z,100.00
2022-11-09T10:03:06.468Z,100.00
2022-11-09T10:06:04.537Z,100.00
2022-11-09T10:09:01.859Z,100.00
2022-11-09T10:11:35.789Z,100.00
2022-11-09T10:14:24.902Z,100.00
2022-11-09T10:17:24.792Z,100.00
2022-11-09T10:20:15.550Z,100.00
2022-11-09T10:22:46.510Z,100.00
2022-11-09T10:28:20.609Z,100.00
2022-11-09T10:30:47.189Z,100.00
2022-11-09T10:33:16.733Z,100.00
2022-11-09T10:35:47.504Z,100.00
2022-11-09T10:38:21.105Z,100.00
2022-11-09T10:41:31.272Z,100.00
2022-11-09T10:43:57.739Z,100.00
2022-11-09T10:46:25.105Z,100.00
2022-11-09T10:48:52.454Z,100.00
2022-11-09T10:51:38.744Z,100.00
2022-11-09T10:54:26.442Z,100.00
2022-11-09T10:57:05.893Z,100.00
2022-11-09T10:59:57.571Z,87.82
2022-11-09T11:02:27.164Z,84.64
2022-11-09T11:04:59.312Z,91.62
2022-11-09T11:07:25.725Z,100.00
2022-11-09T11:09:52.106Z,100.00
2022-11-09T11:12:20.386Z,100.00
2022-11-09T11:14:46.746Z,100.00
2022-11-09T11:17:24.874Z,100.00
2022-11-09T11:19:51.246Z,100.00
2022-11-09T11:22:22.689Z,100.00
2022-11-09T11:24:56.384Z,100.00
2022-11-09T11:27:28.515Z,100.00
2022-11-09T11:30:11.627Z,100.00
2022-11-09T11:32:38.059Z,100.00
2022-11-09T11:35:05.839Z,100.00
2022-11-09T11:38:01.066Z,100.00
2022-11-09T11:40:34.713Z,100.00
2022-11-09T11:43:13.643Z,100.00
2022-11-09T11:45:49.881Z,100.00
2022-11-09T11:48:27.976Z,100.00
2022-11-09T11:50:57.306Z,100.00
2022-11-09T11:53:45.529Z,100.00
2022-11-09T11:56:17.899Z,100.00
2022-11-09T11:59:06.113Z,100.00
2022-11-09T12:01:47.749Z,100.00
2022-11-09T12:04:39.359Z,100.00
2022-11-09T12:07:31.805Z,100.00
2022-11-09T12:10:32.524Z,100.00
2022-11-09T12:13:04.653Z,100.00
2022-11-09T12:15:33.964Z,100.00
2022-11-09T12:18:26.418Z,100.00
2022-11-09T12:20:55.535Z,100.00
2022-11-09T12:23:37.956Z,100.00
2022-11-09T12:26:24.281Z,100.00
2022-11-09T12:29:07.625Z,100.00
2022-11-09T12:31:48.652Z,100.00
2022-11-09T12:34:27.884Z,100.00
2022-11-09T12:37:04.733Z,100.00
2022-11-09T12:39:39.088Z,100.00
2022-11-09T12:42:16.157Z,100.00
2022-11-09T12:44:58.275Z,100.00
2022-11-09T12:47:30.719Z,100.00
2022-11-09T12:49:57.121Z,100.00
2022-11-09T12:52:27.992Z,100.00
2022-11-09T12:54:54.374Z,100.00
2022-11-09T12:57:25.477Z,100.00
2022-11-09T12:59:53.753Z,100.00
2022-11-09T13:02:20.083Z,100.00
2022-11-09T13:04:55.047Z,100.00
2022-11-09T13:07:49.423Z,100.00
2022-11-09T13:10:29.362Z,100.00
2022-11-09T13:13:07.875Z,100.00
2022-11-09T13:15:34.685Z,100.00
2022-11-09T13:18:35.644Z,100.00
2022-11-09T13:21:21.061Z,100.00
2022-11-09T13:24:00.553Z,100.00
2022-11-09T13:26:31.368Z,100.00
2022-11-09T13:29:06.842Z,100.00
2022-11-09T13:32:11.769Z,100.00
2022-11-09T13:34:50.053Z,100.00
2022-11-09T13:37:41.256Z,100.00
2022-11-09T13:40:32.621Z,100.00
2022-11-09T13:43:05.731Z,100.00
2022-11-09T13:45:47.165Z,100.00
2022-11-09T13:48:33.481Z,100.00
2022-11-09T13:51:03.110Z,100.00
2022-11-09T13:53:53.017Z,100.00
2022-11-09T13:56:38.240Z,100.00
2022-11-09T13:59:34.675Z,100.00
2022-11-09T14:02:01.876Z,100.00
2022-11-09T14:04:29.930Z,100.00
2022-11-09T14:06:59.769Z,100.00
2022-11-09T14:09:26.225Z,100.00
2022-11-09T14:12:11.331Z,100.00
2022-11-09T14:15:04.936Z,100.00
2022-11-09T14:17:46.109Z,100.00
2022-11-09T14:20:36.810Z,100.00
2022-11-09T14:23:03.274Z,100.00
2022-11-09T14:25:30.885Z,100.00
2022-11-09T14:27:57.398Z,100.00
2022-11-09T14:30:28.651Z,100.00
2022-11-09T14:32:55.816Z,100.00
2022-11-09T14:35:32.794Z,100.00
2022-11-09T14:38:00.142Z,100.00
2022-11-09T14:40:30.175Z,100.00
2022-11-09T14:43:16.690Z,100.00
2022-11-09T14:45:54.269Z,100.00
2022-11-09T14:48:22.044Z,100.00
2022-11-09T14:50:49.003Z,100.00
2022-11-09T14:53:44.716Z,100.00
2022-11-09T14:56:17.889Z,100.00
2022-11-09T14:58:44.333Z,100.00
2022-11-09T15:01:28.747Z,100.00
2022-11-09T15:04:16.986Z,100.00
2022-11-09T15:06:51.127Z,92.82
2022-11-09T15:09:22.295Z,80.76
2022-11-09T15:11:48.811Z,67.05
2022-11-09T15:14:32.550Z,55.32
2022-11-09T15:17:05.015Z,50.80
2022-11-09T15:19:37.936Z,47.90
2022-11-09T15:22:04.304Z,45.82
2022-11-09T15:24:46.341Z,44.53
2022-11-09T15:27:33.117Z,42.77
2022-11-09T15:29:59.473Z,42.27
2022-11-09T15:32:26.115Z,40.82
2022-11-09T15:34:56.406Z,39.85
2022-11-09T15:37:25.889Z,39.93
2022-11-09T15:39:52.279Z,38.88
2022-11-09T15:42:18.880Z,38.59
2022-11-09T15:44:45.296Z,38.06
2022-11-09T15:47:31.496Z,37.80
2022-11-09T15:49:59.526Z,36.79
2022-11-09T15:52:25.920Z,36.99
2022-11-09T15:54:52.262Z,37.64
2022-11-09T15:57:19.368Z,37.13
2022-11-09T15:59:46.755Z,37.83
2022-11-09T16:02:16.228Z,36.90
2022-11-09T16:04:42.726Z,35.10
2022-11-09T16:07:09.983Z,33.12
2022-11-09T16:09:38.917Z,31.76
2022-11-09T16:12:05.545Z,30.11
2022-11-09T16:14:32.405Z,29.64
2022-11-09T16:16:58.758Z,27.88
2022-11-09T16:19:25.168Z,27.52
2022-11-09T16:21:52.471Z,25.81
2022-11-09T16:24:18.847Z,24.68
2022-11-09T16:26:45.604Z,22.88
2022-11-09T16:29:12.452Z,18.99
2022-11-09T16:31:51.460Z,19.38
2022-11-09T16:34:18.713Z,18.08
2022-11-09T16:36:50.938Z,17.21
2022-11-09T16:39:20.373Z,17.77
2022-11-09T16:41:50.314Z,20.53
2022-11-09T16:44:18.621Z,19.97
2022-11-09T16:46:45.487Z,19.63
2022-11-09T16:49:12.028Z,18.25
2022-11-09T16:51:38.437Z,17.86
2022-11-09T16:54:04.844Z,18.05
2022-11-09T16:56:33.602Z,18.47
2022-11-09T16:59:00.612Z,17.53
2022-11-09T17:01:27.054Z,13.86
2022-11-09T17:03:53.535Z,13.24
2022-11-09T17:06:19.906Z,12.91
2022-11-09T17:08:46.253Z,12.00
2022-11-09T17:11:14.728Z,11.20
2022-11-09T17:13:41.265Z,10.61
2022-11-09T17:16:10.510Z,10.66
2022-11-09T17:18:37.801Z,10.13
2022-11-09T17:21:08.653Z,10.13
2022-11-09T17:23:35.021Z,8.80
2022-11-09T17:26:02.764Z,8.12
2022-11-09T17:28:29.414Z,6.97
2022-11-09T17:30:55.882Z,7.36
2022-11-09T17:33:23.037Z,7.00
2022-11-09T17:36:01.950Z,6.89
2022-11-09T17:38:28.378Z,5.99
2022-11-09T17:41:10.462Z,5.48
2022-11-09T17:43:38.441Z,1.00
2022-11-09T17:46:06.346Z,0.78
2022-11-09T17:48:33.469Z,0.00
2022-11-09T17:50:59.922Z,0.00
2022-11-09T17:53:26.505Z,0.00
2022-11-09T17:55:52.976Z,0.00
2022-11-09T17:58:19.779Z,0.00
2022-11-09T18:00:46.572Z,0.00
2022-11-09T18:03:12.990Z,0.00
2022-11-09T18:05:40.063Z,0.35
2022-11-09T18:08:08.468Z,0.00
2022-11-09T18:10:35.800Z,0.00
2022-11-09T18:13:02.223Z,0.00
2022-11-09T18:15:28.603Z,3.01
2022-11-09T18:17:54.981Z,4.20
2022-11-09T18:20:21.494Z,7.77
2022-11-09T18:22:50.687Z,12.49
2022-11-09T18:25:17.303Z,7.07
2022-11-09T18:27:43.659Z,9.18
2022-11-09T18:30:10.540Z,11.83
2022-11-09T18:32:36.915Z,12.39
2022-11-09T18:35:03.535Z,14.04
2022-11-09T18:37:33.928Z,10.06
2022-11-09T18:40:00.334Z,0.00
2022-11-09T18:42:26.711Z,0.00
2022-11-09T18:44:53.085Z,0.00
2022-11-09T18:47:20.395Z,0.00
2022-11-09T18:49:46.744Z,0.00
2022-11-09T18:52:13.174Z,0.00
2022-11-09T18:54:39.574Z,0.00
2022-11-09T18:57:06.008Z,0.00
2022-11-09T18:59:32.359Z,6.38
2022-11-09T19:01:58.722Z,0.00
2022-11-09T19:04:25.077Z,4.45
2022-11-09T19:06:51.549Z,13.12
2022-11-09T19:09:30.398Z,24.47
2022-11-09T19:11:57.099Z,25.50
2022-11-09T19:14:23.666Z,25.18
2022-11-09T19:16:50.045Z,22.29
2022-11-09T19:19:16.553Z,24.04
2022-11-09T19:21:51.059Z,23.77
2022-11-09T19:24:18.968Z,24.56
2022-11-09T19:26:45.713Z,27.41
2022-11-09T19:29:13.338Z,28.07
2022-11-09T19:31:43.359Z,26.93
2022-11-09T19:34:10.948Z,25.67
2022-11-09T19:36:37.418Z,24.40
2022-11-09T19:39:04.125Z,26.08
2022-11-09T19:41:30.584Z,29.29
2022-11-09T19:44:00.328Z,28.93
2022-11-09T19:46:27.828Z,29.31
2022-11-09T19:48:54.185Z,27.57
2022-11-09T19:51:20.556Z,25.08
2022-11-09T19:53:54.388Z,25.87
2022-11-09T19:56:21.696Z,28.74
2022-11-09T19:58:49.456Z,31.97
2022-11-09T20:01:15.889Z,38.99
2022-11-09T20:03:42.336Z,43.09
2022-11-09T20:06:08.744Z,45.67
2022-11-09T20:08:35.842Z,46.60
2022-11-09T20:11:06.370Z,42.61
2022-11-09T20:13:32.757Z,41.38
2022-11-09T20:16:06.537Z,38.03
2022-11-09T20:18:39.321Z,38.99
2022-11-09T20:21:08.618Z,42.70
2022-11-09T20:23:35.010Z,48.39
2022-11-09T20:26:05.487Z,52.83
2022-11-09T20:28:31.938Z,54.53
2022-11-09T20:30:58.371Z,52.31
2022-11-09T20:33:24.738Z,53.97
2022-11-09T20:35:55.151Z,52.20
2022-11-09T20:38:21.894Z,51.45
2022-11-09T20:40:59.095Z,51.72
2022-11-09T20:43:26.048Z,52.16
2022-11-09T20:45:53.002Z,50.21
2022-11-09T20:48:51.657Z,51.33
2022-11-09T20:51:06.898Z,53.61
2022-11-09T20:53:33.461Z,52.33
2022-11-09T20:55:59.854Z,49.96
2022-11-09T20:58:27.337Z,48.75
2022-11-09T21:01:07.997Z,42.04
2022-11-09T21:03:34.552Z,41.97
2022-11-09T21:06:01.879Z,39.28
2022-11-09T21:08:28.453Z,36.23
2022-11-09T21:10:54.903Z,36.11
2022-11-09T21:13:21.856Z,32.92
2022-11-09T21:15:48.298Z,32.26
2022-11-09T21:18:14.806Z,31.47
2022-11-09T21:20:41.324Z,29.76
2022-11-09T21:23:12.506Z,29.76
2022-11-09T21:25:57.977Z,29.60
2022-11-09T21:28:43.195Z,30.29
2022-11-09T21:31:09.544Z,31.57
2022-11-09T21:33:36.009Z,31.13
2022-11-09T21:36:09.538Z,30.89
2022-11-09T21:38:36.665Z,28.35
2022-11-09T21:41:23.967Z,27.96
2022-11-09T21:43:56.727Z,26.74
2022-11-09T21:46:23.512Z,28.59
2022-11-09T21:48:50.514Z,28.94
2022-11-09T21:51:16.945Z,31.90
2022-11-09T21:53:43.296Z,34.22
2022-11-09T21:56:09.683Z,34.21
2022-11-09T21:58:36.053Z,33.64
2022-11-09T22:01:06.666Z,31.43
2022-11-09T22:03:33.797Z,31.50
2022-11-09T22:06:00.263Z,31.12
2022-11-09T22:08:26.648Z,29.24
2022-11-09T22:10:53.150Z,30.73
2022-11-09T22:13:38.146Z,30.22
2022-11-09T22:16:09.340Z,30.61
2022-11-09T22:18:55.481Z,32.87
2022-11-09T22:21:22.922Z,31.93
2022-11-09T22:23:49.365Z,31.53
2022-11-09T22:26:15.859Z,30.41
2022-11-09T22:28:42.333Z,29.49
2022-11-09T22:31:08.989Z,27.50
2022-11-09T22:33:35.496Z,27.05
2022-11-09T22:36:03.667Z,27.27
2022-11-09T22:38:33.654Z,28.25
2022-11-09T22:41:03.886Z,27.99
2022-11-09T22:43:38.004Z,27.90
2022-11-09T22:46:11.627Z,28.07
2022-11-09T22:48:38.621Z,28.28
2022-11-09T22:51:05.146Z,28.43
2022-11-09T22:53:31.833Z,27.76
2022-11-09T22:55:59.387Z,26.96
2022-11-09T22:58:25.978Z,26.96
2022-11-09T23:00:52.440Z,24.23
2022-11-09T23:03:19.417Z,24.32
2022-11-09T23:05:46.354Z,23.84
2022-11-09T23:08:12.792Z,22.49
2022-11-09T23:10:39.235Z,22.13
2022-11-09T23:13:05.867Z,22.08
2022-11-09T23:15:32.280Z,21.75
2022-11-09T23:18:17.230Z,21.77
2022-11-09T23:20:43.715Z,20.18
2022-11-09T23:23:10.130Z,19.49
2022-11-09T23:25:56.337Z,17.96
2022-11-09T23:28:24.108Z,19.34
2022-11-09T23:30:50.475Z,20.19
2022-11-09T23:33:16.847Z,20.59
2022-11-09T23:35:43.239Z,17.34
2022-11-09T23:38:09.758Z,16.30
2022-11-09T23:40:36.178Z,17.86
2022-11-09T23:43:07.453Z,18.34
2022-11-09T23:45:34.855Z,15.20
2022-11-09T23:48:01.339Z,11.00
2022-11-09T23:50:27.893Z,11.50
2022-11-09T23:52:58.242Z,10.19
2022-11-09T23:55:25.525Z,9.77
2022-11-09T23:57:51.870Z,9.58
